sensor_id;sensor_type;location;lat;lon;timestamp;pressure;altitude;pressure_sealevel;temperature
74485;BMP280;62942;52.462;10.846;2022-08-19T00:00:12;100420;;;
74485;BMP280;62942;52.462;10.846;2022-08-19T00:01:12;100430;;;
74485;BMP280;62942;52.462;10.846;2022-08-19T00:02:12;100430;;;
74485;BMP280;62942;52.462;10.846;2022-08-19T00:03:12;100430;;;
74485;BMP280;62942;52.462;10.846;2022-08-19T00:04:13;100430;;;
74485;BMP280;62942;52.462;10.846;2022-08-19T00:05:13;100430;;;
74485;BMP280;62942;52.462;10.846;2022-08-19T00:06:12;100420;;;
74485;BMP280;62942;52.462;10.846;2022-08-19T00:07:22;100420;;;
74485;BMP280;62942;52.462;10.846;2022-08-19T00:08:32;100420;;;
74485;BMP280;62942;52.462;10.846;2022-08-19T00:09:42;100420;;;
74485;BMP280;62942;52.462;10.846;2022-08-19T00:10:52;100430;;;
74485;BMP280;62942;52.462;10.846;2022-08-19T00:11:52;100430;;;
74485;BMP280;62942;52.462;10.846;2022-08-19T00:13:02;100420;;;
74485;BMP280;62942;52.462;10.846;2022-08-19T00:14:13;100410;;;
74485;BMP280;62942;52.462;10.846;2022-08-19T00:15:13;100420;;;
74485;BMP280;62942;52.462;10.846;2022-08-19T00:16:22;100410;;;
74485;BMP280;62942;52.462;10.846;2022-08-19T00:17:22;100420;;;
74485;BMP280;62942;52.462;10.846;2022-08-19T00:18:32;100420;;;
74485;BMP280;62942;52.462;10.846;2022-08-19T00:19:32;100420;;;
74485;BMP280;62942;52.462;10.846;2022-08-19T00:20:32;100410;;;
74485;BMP280;62942;52.462;10.846;2022-08-19T00:21:42;100420;;;
74485;BMP280;62942;52.462;10.846;2022-08-19T00:22:52;100420;;;
74485;BMP280;62942;52.462;10.846;2022-08-19T00:23:52;100410;;;
74485;BMP280;62942;52.462;10.846;2022-08-19T00:25:02;100420;;;
74485;BMP280;62942;52.462;10.846;2022-08-19T00:26:02;100420;;;
74485;BMP280;62942;52.462;10.846;2022-08-19T00:27:12;100420;;;
74485;BMP280;62942;52.462;10.846;2022-08-19T00:28:22;100430;;;
74485;BMP280;62942;52.462;10.846;2022-08-19T00:29:23;100430;;;
74485;BMP280;62942;52.462;10.846;2022-08-19T00:30:22;100430;;;
74485;BMP280;62942;52.462;10.846;2022-08-19T00:31:32;100430;;;
74485;BMP280;62942;52.462;10.846;2022-08-19T00:32:42;100440;;;
74485;BMP280;62942;52.462;10.846;2022-08-19T00:33:42;100440;;;
74485;BMP280;62942;52.462;10.846;2022-08-19T00:34:52;100440;;;
74485;BMP280;62942;52.462;10.846;2022-08-19T00:35:52;100440;;;
74485;BMP280;62942;52.462;10.846;2022-08-19T00:37:02;100430;;;
74485;BMP280;62942;52.462;10.846;2022-08-19T00:38:12;100430;;;
74485;BMP280;62942;52.462;10.846;2022-08-19T00:39:22;100440;;;
74485;BMP280;62942;52.462;10.846;2022-08-19T00:40:22;100440;;;
74485;BMP280;62942;52.462;10.846;2022-08-19T00:41:32;100440;;;
74485;BMP280;62942;52.462;10.846;2022-08-19T00:42:32;100440;;;
74485;BMP280;62942;52.462;10.846;2022-08-19T00:43:42;100440;;;
74485;BMP280;62942;52.462;10.846;2022-08-19T00:44:52;100440;;;
74485;BMP280;62942;52.462;10.846;2022-08-19T00:45:52;100450;;;
74485;BMP280;62942;52.462;10.846;2022-08-19T00:47:02;100440;;;
74485;BMP280;62942;52.462;10.846;2022-08-19T00:48:12;100440;;;
74485;BMP280;62942;52.462;10.846;2022-08-19T00:49:15;100430;;;
74485;BMP280;62942;52.462;10.846;2022-08-19T00:50:12;100430;;;
74485;BMP280;62942;52.462;10.846;2022-08-19T00:51:12;100420;;;
74485;BMP280;62942;52.462;10.846;2022-08-19T00:52:13;100430;;;
74485;BMP280;62942;52.462;10.846;2022-08-19T00:53:23;100430;;;
74485;BMP280;62942;52.462;10.846;2022-08-19T00:54:22;100430;;;
74485;BMP280;62942;52.462;10.846;2022-08-19T00:55:32;100430;;;
74485;BMP280;62942;52.462;10.846;2022-08-19T00:56:42;100430;;;
74485;BMP280;62942;52.462;10.846;2022-08-19T00:57:43;100430;;;
74485;BMP280;62942;52.462;10.846;2022-08-19T00:58:42;100430;;;
74485;BMP280;62942;52.462;10.846;2022-08-19T00:59:52;100430;;;
74485;BMP280;62942;52.462;10.846;2022-08-19T01:01:03;100420;;;
74485;BMP280;62942;52.462;10.846;2022-08-19T01:02:12;100430;;;
74485;BMP280;62942;52.462;10.846;2022-08-19T01:03:22;100420;;;
74485;BMP280;62942;52.462;10.846;2022-08-19T01:04:22;100420;;;
74485;BMP280;62942;52.462;10.846;2022-08-19T01:05:32;100400;;;
74485;BMP280;62942;52.462;10.846;2022-08-19T01:06:42;100410;;;
74485;BMP280;62942;52.462;10.846;2022-08-19T01:07:42;100410;;;
74485;BMP280;62942;52.462;10.846;2022-08-19T01:08:53;100410;;;
74485;BMP280;62942;52.462;10.846;2022-08-19T01:10:02;100410;;;
74485;BMP280;62942;52.462;10.846;2022-08-19T01:11:02;100420;;;
74485;BMP280;62942;52.462;10.846;2022-08-19T01:12:02;100420;;;
74485;BMP280;62942;52.462;10.846;2022-08-19T01:13:13;100410;;;
74485;BMP280;62942;52.462;10.846;2022-08-19T01:14:22;100410;;;
74485;BMP280;62942;52.462;10.846;2022-08-19T01:15:23;100420;;;
74485;BMP280;62942;52.462;10.846;2022-08-19T01:16:32;100410;;;
74485;BMP280;62942;52.462;10.846;2022-08-19T01:17:42;100420;;;
74485;BMP280;62942;52.462;10.846;2022-08-19T01:18:52;100420;;;
74485;BMP280;62942;52.462;10.846;2022-08-19T01:20:02;100410;;;
74485;BMP280;62942;52.462;10.846;2022-08-19T01:21:15;100410;;;
74485;BMP280;62942;52.462;10.846;2022-08-19T01:22:13;100420;;;
74485;BMP280;62942;52.462;10.846;2022-08-19T01:23:22;100420;;;
74485;BMP280;62942;52.462;10.846;2022-08-19T01:24:22;100410;;;
74485;BMP280;62942;52.462;10.846;2022-08-19T01:25:23;100410;;;
74485;BMP280;62942;52.462;10.846;2022-08-19T01:26:37;100420;;;
74485;BMP280;62942;52.462;10.846;2022-08-19T01:27:43;100420;;;
74485;BMP280;62942;52.462;10.846;2022-08-19T01:28:43;100420;;;
74485;BMP280;62942;52.462;10.846;2022-08-19T01:29:52;100410;;;
74485;BMP280;62942;52.462;10.846;2022-08-19T01:31:02;100410;;;
74485;BMP280;62942;52.462;10.846;2022-08-19T01:32:14;100410;;;
74485;BMP280;62942;52.462;10.846;2022-08-19T01:33:22;100400;;;
74485;BMP280;62942;52.462;10.846;2022-08-19T01:34:32;100400;;;
74485;BMP280;62942;52.462;10.846;2022-08-19T01:35:42;100400;;;
74485;BMP280;62942;52.462;10.846;2022-08-19T01:36:52;100400;;;
74485;BMP280;62942;52.462;10.846;2022-08-19T01:38:03;100400;;;
74485;BMP280;62942;52.462;10.846;2022-08-19T01:39:13;100400;;;
74485;BMP280;62942;52.462;10.846;2022-08-19T01:40:23;100400;;;
74485;BMP280;62942;52.462;10.846;2022-08-19T01:41:32;100400;;;
74485;BMP280;62942;52.462;10.846;2022-08-19T01:42:32;100400;;;
74485;BMP280;62942;52.462;10.846;2022-08-19T01:43:32;100400;;;
74485;BMP280;62942;52.462;10.846;2022-08-19T01:44:32;100400;;;
74485;BMP280;62942;52.462;10.846;2022-08-19T01:45:42;100400;;;
74485;BMP280;62942;52.462;10.846;2022-08-19T01:46:42;100390;;;
74485;BMP280;62942;52.462;10.846;2022-08-19T01:47:42;100390;;;
74485;BMP280;62942;52.462;10.846;2022-08-19T01:48:52;100390;;;
74485;BMP280;62942;52.462;10.846;2022-08-19T01:49:52;100390;;;
74485;BMP280;62942;52.462;10.846;2022-08-19T01:51:02;100390;;;
74485;BMP280;62942;52.462;10.846;2022-08-19T01:52:12;100380;;;
74485;BMP280;62942;52.462;10.846;2022-08-19T01:53:22;100380;;;
74485;BMP280;62942;52.462;10.846;2022-08-19T01:54:22;100380;;;
74485;BMP280;62942;52.462;10.846;2022-08-19T01:55:32;100390;;;
74485;BMP280;62942;52.462;10.846;2022-08-19T01:56:42;100390;;;
74485;BMP280;62942;52.462;10.846;2022-08-19T01:57:42;100390;;;
74485;BMP280;62942;52.462;10.846;2022-08-19T01:58:43;100390;;;
74485;BMP280;62942;52.462;10.846;2022-08-19T01:59:52;100390;;;
74485;BMP280;62942;52.462;10.846;2022-08-19T02:00:52;100390;;;
74485;BMP280;62942;52.462;10.846;2022-08-19T02:01:52;100390;;;
74485;BMP280;62942;52.462;10.846;2022-08-19T02:03:02;100380;;;
74485;BMP280;62942;52.462;10.846;2022-08-19T02:04:12;100390;;;
74485;BMP280;62942;52.462;10.846;2022-08-19T02:05:12;100400;;;
74485;BMP280;62942;52.462;10.846;2022-08-19T02:06:12;100390;;;
74485;BMP280;62942;52.462;10.846;2022-08-19T02:07:22;100390;;;
74485;BMP280;62942;52.462;10.846;2022-08-19T02:08:33;100390;;;
74485;BMP280;62942;52.462;10.846;2022-08-19T02:09:42;100380;;;
74485;BMP280;62942;52.462;10.846;2022-08-19T02:10:52;100390;;;
74485;BMP280;62942;52.462;10.846;2022-08-19T02:12:02;100390;;;
74485;BMP280;62942;52.462;10.846;2022-08-19T02:13:12;100390;;;
74485;BMP280;62942;52.462;10.846;2022-08-19T02:14:22;100390;;;
74485;BMP280;62942;52.462;10.846;2022-08-19T02:15:32;100390;;;
74485;BMP280;62942;52.462;10.846;2022-08-19T02:16:42;100390;;;
74485;BMP280;62942;52.462;10.846;2022-08-19T02:17:52;100390;;;
74485;BMP280;62942;52.462;10.846;2022-08-19T02:19:02;100390;;;
74485;BMP280;62942;52.462;10.846;2022-08-19T02:20:02;100380;;;
74485;BMP280;62942;52.462;10.846;2022-08-19T02:21:12;100380;;;
74485;BMP280;62942;52.462;10.846;2022-08-19T02:22:22;100380;;;
74485;BMP280;62942;52.462;10.846;2022-08-19T02:23:22;100380;;;
74485;BMP280;62942;52.462;10.846;2022-08-19T02:24:32;100380;;;
74485;BMP280;62942;52.462;10.846;2022-08-19T02:25:42;100380;;;
74485;BMP280;62942;52.462;10.846;2022-08-19T02:26:42;100390;;;
74485;BMP280;62942;52.462;10.846;2022-08-19T02:27:42;100380;;;
74485;BMP280;62942;52.462;10.846;2022-08-19T02:28:52;100380;;;
74485;BMP280;62942;52.462;10.846;2022-08-19T02:29:52;100370;;;
74485;BMP280;62942;52.462;10.846;2022-08-19T02:31:02;100380;;;
74485;BMP280;62942;52.462;10.846;2022-08-19T02:32:02;100380;;;
74485;BMP280;62942;52.462;10.846;2022-08-19T02:33:12;100380;;;
74485;BMP280;62942;52.462;10.846;2022-08-19T02:34:22;100380;;;
74485;BMP280;62942;52.462;10.846;2022-08-19T02:35:32;100380;;;
74485;BMP280;62942;52.462;10.846;2022-08-19T02:36:42;100380;;;
74485;BMP280;62942;52.462;10.846;2022-08-19T02:37:42;100380;;;
74485;BMP280;62942;52.462;10.846;2022-08-19T02:38:52;100390;;;
74485;BMP280;62942;52.462;10.846;2022-08-19T02:39:52;100380;;;
74485;BMP280;62942;52.462;10.846;2022-08-19T02:41:02;100390;;;
74485;BMP280;62942;52.462;10.846;2022-08-19T02:42:12;100380;;;
74485;BMP280;62942;52.462;10.846;2022-08-19T02:43:12;100380;;;
74485;BMP280;62942;52.462;10.846;2022-08-19T02:44:22;100380;;;
74485;BMP280;62942;52.462;10.846;2022-08-19T02:45:32;100380;;;
74485;BMP280;62942;52.462;10.846;2022-08-19T02:46:32;100380;;;
74485;BMP280;62942;52.462;10.846;2022-08-19T02:47:32;100380;;;
74485;BMP280;62942;52.462;10.846;2022-08-19T02:48:42;100390;;;
74485;BMP280;62942;52.462;10.846;2022-08-19T02:49:52;100390;;;
74485;BMP280;62942;52.462;10.846;2022-08-19T02:50:52;100390;;;
74485;BMP280;62942;52.462;10.846;2022-08-19T02:52:02;100380;;;
74485;BMP280;62942;52.462;10.846;2022-08-19T02:53:12;100390;;;
74485;BMP280;62942;52.462;10.846;2022-08-19T02:54:22;100380;;;
74485;BMP280;62942;52.462;10.846;2022-08-19T02:55:32;100380;;;
74485;BMP280;62942;52.462;10.846;2022-08-19T02:56:33;100380;;;
74485;BMP280;62942;52.462;10.846;2022-08-19T02:57:42;100390;;;
74485;BMP280;62942;52.462;10.846;2022-08-19T02:58:42;100390;;;
74485;BMP280;62942;52.462;10.846;2022-08-19T02:59:52;100390;;;
74485;BMP280;62942;52.462;10.846;2022-08-19T03:00:53;100390;;;
74485;BMP280;62942;52.462;10.846;2022-08-19T03:02:02;100390;;;
74485;BMP280;62942;52.462;10.846;2022-08-19T03:03:02;100400;;;
74485;BMP280;62942;52.462;10.846;2022-08-19T03:04:13;100400;;;
74485;BMP280;62942;52.462;10.846;2022-08-19T03:05:12;100400;;;
74485;BMP280;62942;52.462;10.846;2022-08-19T03:06:22;100390;;;
74485;BMP280;62942;52.462;10.846;2022-08-19T03:07:32;100400;;;
74485;BMP280;62942;52.462;10.846;2022-08-19T03:08:43;100400;;;
74485;BMP280;62942;52.462;10.846;2022-08-19T03:09:52;100400;;;
74485;BMP280;62942;52.462;10.846;2022-08-19T03:10:52;100400;;;
74485;BMP280;62942;52.462;10.846;2022-08-19T03:12:02;100400;;;
74485;BMP280;62942;52.462;10.846;2022-08-19T03:13:02;100400;;;
74485;BMP280;62942;52.462;10.846;2022-08-19T03:14:12;100400;;;
74485;BMP280;62942;52.462;10.846;2022-08-19T03:15:22;100400;;;
74485;BMP280;62942;52.462;10.846;2022-08-19T03:16:33;100410;;;
74485;BMP280;62942;52.462;10.846;2022-08-19T03:17:42;100400;;;
74485;BMP280;62942;52.462;10.846;2022-08-19T03:18:52;100400;;;
74485;BMP280;62942;52.462;10.846;2022-08-19T03:20:02;100400;;;
74485;BMP280;62942;52.462;10.846;2022-08-19T03:21:02;100410;;;
74485;BMP280;62942;52.462;10.846;2022-08-19T03:22:12;100410;;;
74485;BMP280;62942;52.462;10.846;2022-08-19T03:23:12;100410;;;
74485;BMP280;62942;52.462;10.846;2022-08-19T03:24:22;100400;;;
74485;BMP280;62942;52.462;10.846;2022-08-19T03:25:22;100400;;;
74485;BMP280;62942;52.462;10.846;2022-08-19T03:26:32;100400;;;
74485;BMP280;62942;52.462;10.846;2022-08-19T03:27:42;100400;;;
74485;BMP280;62942;52.462;10.846;2022-08-19T03:28:52;100400;;;
74485;BMP280;62942;52.462;10.846;2022-08-19T03:29:52;100400;;;
74485;BMP280;62942;52.462;10.846;2022-08-19T03:31:02;100400;;;
74485;BMP280;62942;52.462;10.846;2022-08-19T03:32:12;100400;;;
74485;BMP280;62942;52.462;10.846;2022-08-19T03:33:22;100400;;;
74485;BMP280;62942;52.462;10.846;2022-08-19T03:34:32;100400;;;
74485;BMP280;62942;52.462;10.846;2022-08-19T03:35:32;100400;;;
74485;BMP280;62942;52.462;10.846;2022-08-19T03:36:42;100400;;;
74485;BMP280;62942;52.462;10.846;2022-08-19T03:37:42;100400;;;
74485;BMP280;62942;52.462;10.846;2022-08-19T03:38:53;100400;;;
74485;BMP280;62942;52.462;10.846;2022-08-19T03:39:52;100400;;;
74485;BMP280;62942;52.462;10.846;2022-08-19T03:41:02;100400;;;
74485;BMP280;62942;52.462;10.846;2022-08-19T03:42:12;100400;;;
74485;BMP280;62942;52.462;10.846;2022-08-19T03:43:22;100400;;;
74485;BMP280;62942;52.462;10.846;2022-08-19T03:44:32;100400;;;
74485;BMP280;62942;52.462;10.846;2022-08-19T03:45:42;100400;;;
74485;BMP280;62942;52.462;10.846;2022-08-19T03:46:52;100400;;;
74485;BMP280;62942;52.462;10.846;2022-08-19T03:48:02;100400;;;
74485;BMP280;62942;52.462;10.846;2022-08-19T03:49:12;100400;;;
74485;BMP280;62942;52.462;10.846;2022-08-19T03:50:22;100400;;;
74485;BMP280;62942;52.462;10.846;2022-08-19T03:51:25;100410;;;
74485;BMP280;62942;52.462;10.846;2022-08-19T03:52:32;100410;;;
74485;BMP280;62942;52.462;10.846;2022-08-19T03:53:42;100410;;;
74485;BMP280;62942;52.462;10.846;2022-08-19T03:54:52;100410;;;
74485;BMP280;62942;52.462;10.846;2022-08-19T03:56:02;100410;;;
74485;BMP280;62942;52.462;10.846;2022-08-19T03:57:12;100410;;;
74485;BMP280;62942;52.462;10.846;2022-08-19T03:58:22;100410;;;
74485;BMP280;62942;52.462;10.846;2022-08-19T03:59:32;100410;;;
74485;BMP280;62942;52.462;10.846;2022-08-19T04:00:42;100410;;;
74485;BMP280;62942;52.462;10.846;2022-08-19T04:01:52;100410;;;
74485;BMP280;62942;52.462;10.846;2022-08-19T04:02:52;100410;;;
74485;BMP280;62942;52.462;10.846;2022-08-19T04:04:02;100400;;;
74485;BMP280;62942;52.462;10.846;2022-08-19T04:05:02;100410;;;
74485;BMP280;62942;52.462;10.846;2022-08-19T04:06:12;100400;;;
74485;BMP280;62942;52.462;10.846;2022-08-19T04:07:13;100400;;;
74485;BMP280;62942;52.462;10.846;2022-08-19T04:08:22;100410;;;
74485;BMP280;62942;52.462;10.846;2022-08-19T04:09:32;100410;;;
74485;BMP280;62942;52.462;10.846;2022-08-19T04:10:34;100410;;;
74485;BMP280;62942;52.462;10.846;2022-08-19T04:11:42;100410;;;
74485;BMP280;62942;52.462;10.846;2022-08-19T04:12:41;100410;;;
74485;BMP280;62942;52.462;10.846;2022-08-19T04:13:52;100410;;;
74485;BMP280;62942;52.462;10.846;2022-08-19T04:15:02;100410;;;
74485;BMP280;62942;52.462;10.846;2022-08-19T04:16:02;100410;;;
74485;BMP280;62942;52.462;10.846;2022-08-19T04:17:12;100410;;;
74485;BMP280;62942;52.462;10.846;2022-08-19T04:18:12;100410;;;
74485;BMP280;62942;52.462;10.846;2022-08-19T04:19:22;100410;;;
74485;BMP280;62942;52.462;10.846;2022-08-19T04:20:22;100410;;;
74485;BMP280;62942;52.462;10.846;2022-08-19T04:21:32;100400;;;
74485;BMP280;62942;52.462;10.846;2022-08-19T04:22:32;100390;;;
74485;BMP280;62942;52.462;10.846;2022-08-19T04:23:41;100390;;;
74485;BMP280;62942;52.462;10.846;2022-08-19T04:24:42;100390;;;
74485;BMP280;62942;52.462;10.846;2022-08-19T04:25:51;100390;;;
74485;BMP280;62942;52.462;10.846;2022-08-19T04:26:52;100400;;;
74485;BMP280;62942;52.462;10.846;2022-08-19T04:28:02;100400;;;
74485;BMP280;62942;52.462;10.846;2022-08-19T04:29:12;100400;;;
74485;BMP280;62942;52.462;10.846;2022-08-19T04:30:22;100400;;;
74485;BMP280;62942;52.462;10.846;2022-08-19T04:31:22;100410;;;
74485;BMP280;62942;52.462;10.846;2022-08-19T04:32:32;100410;;;
74485;BMP280;62942;52.462;10.846;2022-08-19T04:33:32;100410;;;
74485;BMP280;62942;52.462;10.846;2022-08-19T04:34:42;100420;;;
74485;BMP280;62942;52.462;10.846;2022-08-19T04:35:43;100420;;;
74485;BMP280;62942;52.462;10.846;2022-08-19T04:36:52;100420;;;
74485;BMP280;62942;52.462;10.846;2022-08-19T04:38:02;100420;;;
74485;BMP280;62942;52.462;10.846;2022-08-19T04:39:13;100420;;;
74485;BMP280;62942;52.462;10.846;2022-08-19T04:40:21;100420;;;
74485;BMP280;62942;52.462;10.846;2022-08-19T04:41:32;100420;;;
74485;BMP280;62942;52.462;10.846;2022-08-19T04:42:41;100430;;;
74485;BMP280;62942;52.462;10.846;2022-08-19T04:43:41;100430;;;
74485;BMP280;62942;52.462;10.846;2022-08-19T04:44:51;100430;;;
74485;BMP280;62942;52.462;10.846;2022-08-19T04:46:04;100430;;;
74485;BMP280;62942;52.462;10.846;2022-08-19T04:47:12;100420;;;
74485;BMP280;62942;52.462;10.846;2022-08-19T04:48:22;100430;;;
74485;BMP280;62942;52.462;10.846;2022-08-19T04:49:22;100430;;;
74485;BMP280;62942;52.462;10.846;2022-08-19T04:50:31;100430;;;
74485;BMP280;62942;52.462;10.846;2022-08-19T04:51:32;100430;;;
74485;BMP280;62942;52.462;10.846;2022-08-19T04:52:42;100430;;;
74485;BMP280;62942;52.462;10.846;2022-08-19T04:53:42;100430;;;
74485;BMP280;62942;52.462;10.846;2022-08-19T04:54:52;100430;;;
74485;BMP280;62942;52.462;10.846;2022-08-19T04:56:03;100430;;;
74485;BMP280;62942;52.462;10.846;2022-08-19T04:57:11;100420;;;
74485;BMP280;62942;52.462;10.846;2022-08-19T04:58:21;100430;;;
74485;BMP280;62942;52.462;10.846;2022-08-19T04:59:21;100430;;;
74485;BMP280;62942;52.462;10.846;2022-08-19T05:00:31;100430;;;
74485;BMP280;62942;52.462;10.846;2022-08-19T05:01:32;100430;;;
74485;BMP280;62942;52.462;10.846;2022-08-19T05:02:42;100430;;;
74485;BMP280;62942;52.462;10.846;2022-08-19T05:03:41;100430;;;
74485;BMP280;62942;52.462;10.846;2022-08-19T05:04:55;100430;;;
74485;BMP280;62942;52.462;10.846;2022-08-19T05:05:52;100430;;;
74485;BMP280;62942;52.462;10.846;2022-08-19T05:07:01;100430;;;
74485;BMP280;62942;52.462;10.846;2022-08-19T05:08:02;100430;;;
74485;BMP280;62942;52.462;10.846;2022-08-19T05:09:11;100430;;;
74485;BMP280;62942;52.462;10.846;2022-08-19T05:10:12;100430;;;
74485;BMP280;62942;52.462;10.846;2022-08-19T05:11:22;100430;;;
74485;BMP280;62942;52.462;10.846;2022-08-19T05:12:21;100430;;;
74485;BMP280;62942;52.462;10.846;2022-08-19T05:13:31;100430;;;
74485;BMP280;62942;52.462;10.846;2022-08-19T05:14:41;100430;;;
74485;BMP280;62942;52.462;10.846;2022-08-19T05:15:42;100420;;;
74485;BMP280;62942;52.462;10.846;2022-08-19T05:16:51;100420;;;
74485;BMP280;62942;52.462;10.846;2022-08-19T05:17:51;100420;;;
74485;BMP280;62942;52.462;10.846;2022-08-19T05:19:01;100420;;;
74485;BMP280;62942;52.462;10.846;2022-08-19T05:20:02;100410;;;
74485;BMP280;62942;52.462;10.846;2022-08-19T05:21:12;100410;;;
74485;BMP280;62942;52.462;10.846;2022-08-19T05:22:11;100410;;;
74485;BMP280;62942;52.462;10.846;2022-08-19T05:23:21;100410;;;
74485;BMP280;62942;52.462;10.846;2022-08-19T05:24:22;100420;;;
74485;BMP280;62942;52.462;10.846;2022-08-19T05:25:31;100410;;;
74485;BMP280;62942;52.462;10.846;2022-08-19T05:26:31;100410;;;
74485;BMP280;62942;52.462;10.846;2022-08-19T05:27:42;100420;;;
74485;BMP280;62942;52.462;10.846;2022-08-19T05:28:41;100410;;;
74485;BMP280;62942;52.462;10.846;2022-08-19T05:29:51;100420;;;
74485;BMP280;62942;52.462;10.846;2022-08-19T05:31:01;100410;;;
74485;BMP280;62942;52.462;10.846;2022-08-19T05:32:02;100410;;;
74485;BMP280;62942;52.462;10.846;2022-08-19T05:33:11;100410;;;
74485;BMP280;62942;52.462;10.846;2022-08-19T05:34:11;100410;;;
74485;BMP280;62942;52.462;10.846;2022-08-19T05:35:14;100410;;;
74485;BMP280;62942;52.462;10.846;2022-08-19T05:36:21;100410;;;
74485;BMP280;62942;52.462;10.846;2022-08-19T05:37:31;100410;;;
74485;BMP280;62942;52.462;10.846;2022-08-19T05:38:31;100410;;;
74485;BMP280;62942;52.462;10.846;2022-08-19T05:39:41;100410;;;
74485;BMP280;62942;52.462;10.846;2022-08-19T05:40:52;100410;;;
74485;BMP280;62942;52.462;10.846;2022-08-19T05:41:52;100410;;;
74485;BMP280;62942;52.462;10.846;2022-08-19T05:43:01;100420;;;
74485;BMP280;62942;52.462;10.846;2022-08-19T05:44:03;100420;;;
74485;BMP280;62942;52.462;10.846;2022-08-19T05:45:11;100420;;;
74485;BMP280;62942;52.462;10.846;2022-08-19T05:46:16;100420;;;
74485;BMP280;62942;52.462;10.846;2022-08-19T05:47:21;100420;;;
74485;BMP280;62942;52.462;10.846;2022-08-19T05:48:31;100420;;;
74485;BMP280;62942;52.462;10.846;2022-08-19T05:49:32;100420;;;
74485;BMP280;62942;52.462;10.846;2022-08-19T05:50:42;100410;;;
74485;BMP280;62942;52.462;10.846;2022-08-19T05:51:51;100410;;;
74485;BMP280;62942;52.462;10.846;2022-08-19T05:52:52;100410;;;
74485;BMP280;62942;52.462;10.846;2022-08-19T05:53:52;100410;;;
74485;BMP280;62942;52.462;10.846;2022-08-19T05:55:01;100410;;;
74485;BMP280;62942;52.462;10.846;2022-08-19T05:56:03;100410;;;
74485;BMP280;62942;52.462;10.846;2022-08-19T05:57:11;100420;;;
74485;BMP280;62942;52.462;10.846;2022-08-19T05:58:21;100410;;;
74485;BMP280;62942;52.462;10.846;2022-08-19T05:59:21;100410;;;
74485;BMP280;62942;52.462;10.846;2022-08-19T06:00:31;100410;;;
74485;BMP280;62942;52.462;10.846;2022-08-19T06:01:31;100410;;;
74485;BMP280;62942;52.462;10.846;2022-08-19T06:02:41;100410;;;
74485;BMP280;62942;52.462;10.846;2022-08-19T06:03:42;100410;;;
74485;BMP280;62942;52.462;10.846;2022-08-19T06:04:51;100410;;;
74485;BMP280;62942;52.462;10.846;2022-08-19T06:05:51;100400;;;
74485;BMP280;62942;52.462;10.846;2022-08-19T06:07:01;100390;;;
74485;BMP280;62942;52.462;10.846;2022-08-19T06:08:02;100390;;;
74485;BMP280;62942;52.462;10.846;2022-08-19T06:09:12;100400;;;
74485;BMP280;62942;52.462;10.846;2022-08-19T06:10:21;100400;;;
74485;BMP280;62942;52.462;10.846;2022-08-19T06:11:22;100410;;;
74485;BMP280;62942;52.462;10.846;2022-08-19T06:12:31;100410;;;
74485;BMP280;62942;52.462;10.846;2022-08-19T06:13:41;100420;;;
74485;BMP280;62942;52.462;10.846;2022-08-19T06:14:51;100420;;;
74485;BMP280;62942;52.462;10.846;2022-08-19T06:16:01;100420;;;
74485;BMP280;62942;52.462;10.846;2022-08-19T06:17:01;100420;;;
74485;BMP280;62942;52.462;10.846;2022-08-19T06:18:12;100430;;;
74485;BMP280;62942;52.462;10.846;2022-08-19T06:19:12;100430;;;
74485;BMP280;62942;52.462;10.846;2022-08-19T06:20:21;100430;;;
74485;BMP280;62942;52.462;10.846;2022-08-19T06:21:31;100440;;;
74485;BMP280;62942;52.462;10.846;2022-08-19T06:22:42;100440;;;
74485;BMP280;62942;52.462;10.846;2022-08-19T06:23:51;100440;;;
74485;BMP280;62942;52.462;10.846;2022-08-19T06:25:02;100450;;;
74485;BMP280;62942;52.462;10.846;2022-08-19T06:26:11;100450;;;
74485;BMP280;62942;52.462;10.846;2022-08-19T06:27:11;100450;;;
74485;BMP280;62942;52.462;10.846;2022-08-19T06:28:21;100450;;;
74485;BMP280;62942;52.462;10.846;2022-08-19T06:29:31;100450;;;
74485;BMP280;62942;52.462;10.846;2022-08-19T06:30:31;100450;;;
74485;BMP280;62942;52.462;10.846;2022-08-19T06:31:42;100450;;;
74485;BMP280;62942;52.462;10.846;2022-08-19T06:32:41;100450;;;
74485;BMP280;62942;52.462;10.846;2022-08-19T06:33:51;100450;;;
74485;BMP280;62942;52.462;10.846;2022-08-19T06:34:51;100450;;;
74485;BMP280;62942;52.462;10.846;2022-08-19T06:36:01;100460;;;
74485;BMP280;62942;52.462;10.846;2022-08-19T06:37:11;100460;;;
74485;BMP280;62942;52.462;10.846;2022-08-19T06:38:11;100460;;;
74485;BMP280;62942;52.462;10.846;2022-08-19T06:39:23;100450;;;
74485;BMP280;62942;52.462;10.846;2022-08-19T06:40:21;100460;;;
74485;BMP280;62942;52.462;10.846;2022-08-19T06:41:21;100460;;;
74485;BMP280;62942;52.462;10.846;2022-08-19T06:42:31;100460;;;
74485;BMP280;62942;52.462;10.846;2022-08-19T06:43:41;100470;;;
74485;BMP280;62942;52.462;10.846;2022-08-19T06:44:42;100470;;;
74485;BMP280;62942;52.462;10.846;2022-08-19T06:45:41;100470;;;
74485;BMP280;62942;52.462;10.846;2022-08-19T06:46:41;100470;;;
74485;BMP280;62942;52.462;10.846;2022-08-19T06:47:51;100470;;;
74485;BMP280;62942;52.462;10.846;2022-08-19T06:49:02;100470;;;
74485;BMP280;62942;52.462;10.846;2022-08-19T06:50:02;100470;;;
74485;BMP280;62942;52.462;10.846;2022-08-19T06:51:01;100480;;;
74485;BMP280;62942;52.462;10.846;2022-08-19T06:52:11;100470;;;
74485;BMP280;62942;52.462;10.846;2022-08-19T06:53:21;100480;;;
74485;BMP280;62942;52.462;10.846;2022-08-19T06:54:31;100480;;;
74485;BMP280;62942;52.462;10.846;2022-08-19T06:55:41;100480;;;
74485;BMP280;62942;52.462;10.846;2022-08-19T06:56:51;100480;;;
74485;BMP280;62942;52.462;10.846;2022-08-19T06:58:01;100480;;;